createdAt,value
2023-02-11T00:01:56.354Z,-2.32
2023-02-11T00:06:58.019Z,-2.36
2023-02-11T00:12:03.835Z,-2.40
2023-02-11T00:17:05.475Z,-2.44
2023-02-11T00:22:07.482Z,-2.43
2023-02-11T00:27:09.411Z,-2.44
2023-02-11T00:32:11.263Z,-2.48
2023-02-11T00:37:13.098Z,-2.51
2023-02-11T00:42:16.924Z,-2.52
2023-02-11T00:47:20.223Z,-2.56
2023-02-11T00:52:27.422Z,-2.61
2023-02-11T00:57:29.422Z,-2.62
2023-02-11T01:02:31.357Z,-2.64
2023-02-11T01:07:35.313Z,-2.67
2023-02-11T01:12:40.150Z,-2.65
2023-02-11T01:17:46.398Z,-2.64
2023-02-11T01:22:56.586Z,-2.66
2023-02-11T01:28:16.025Z,-2.64
2023-02-11T01:33:34.250Z,-2.61
2023-02-11T01:38:54.670Z,-2.54
2023-02-11T01:44:30.899Z,-2.49
2023-02-11T01:49:45.387Z,-2.40
2023-02-11T01:55:13.878Z,-2.35
2023-02-11T02:00:29.168Z,-2.29
2023-02-11T02:06:02.748Z,-2.21
2023-02-11T02:11:27.749Z,-2.15
2023-02-11T02:16:33.469Z,-2.14
2023-02-11T02:21:42.055Z,-2.10
2023-02-11T02:27:39.157Z,-2.08
2023-02-11T02:33:24.547Z,-1.99
2023-02-11T02:38:56.609Z,-1.90
2023-02-11T02:44:11.883Z,-1.84
2023-02-11T02:49:24.108Z,-1.76
2023-02-11T02:54:46.382Z,-1.71
2023-02-11T03:00:07.266Z,-1.68
2023-02-11T03:05:15.139Z,-1.61
2023-02-11T03:10:31.039Z,-1.58
2023-02-11T03:15:43.921Z,-1.57
2023-02-11T03:21:22.482Z,-1.55
2023-02-11T03:26:40.284Z,-1.53
2023-02-11T03:31:52.465Z,-1.53
2023-02-11T03:37:01.976Z,-1.52
2023-02-11T03:42:15.783Z,-1.51
2023-02-11T03:47:26.996Z,-1.51
2023-02-11T03:52:32.176Z,-1.50
2023-02-11T03:57:36.631Z,-1.48
2023-02-11T04:02:42.737Z,-1.49
2023-02-11T04:07:44.650Z,-1.49
2023-02-11T04:12:54.066Z,-1.44
2023-02-11T04:17:58.174Z,-1.40
2023-02-11T04:23:00.268Z,-1.42
2023-02-11T04:28:01.898Z,-1.42
2023-02-11T04:33:03.582Z,-1.41
2023-02-11T04:38:13.225Z,-1.43
2023-02-11T04:43:19.779Z,-1.44
2023-02-11T04:48:28.720Z,-1.42
2023-02-11T04:53:32.912Z,-1.41
2023-02-11T04:58:37.651Z,-1.37
2023-02-11T05:03:39.663Z,-1.35
2023-02-11T05:08:44.518Z,-1.34
2023-02-11T05:13:46.842Z,-1.30
2023-02-11T05:18:53.101Z,-1.26
2023-02-11T05:23:57.488Z,-1.24
2023-02-11T05:28:59.394Z,-1.20
2023-02-11T05:34:03.364Z,-1.17
2023-02-11T05:39:05.542Z,-1.18
2023-02-11T05:44:15.842Z,-1.16
2023-02-11T05:49:19.803Z,-1.11
2023-02-11T05:54:24.195Z,-1.13
2023-02-11T05:59:28.984Z,-1.09
2023-02-11T06:04:30.678Z,-1.09
2023-02-11T06:09:34.787Z,-1.14
2023-02-11T06:14:36.888Z,-1.16
2023-02-11T06:19:41.035Z,-1.17
2023-02-11T06:25:00.361Z,-1.19
2023-02-11T06:30:09.563Z,-1.18
2023-02-11T06:35:14.083Z,-1.17
2023-02-11T06:40:16.055Z,-1.14
2023-02-11T06:45:32.632Z,-1.12
2023-02-11T06:50:34.464Z,-1.10
2023-02-11T06:55:39.316Z,-1.07
2023-02-11T07:00:41.360Z,-1.06
2023-02-11T07:05:43.334Z,-1.03
2023-02-11T07:10:47.466Z,-0.99
2023-02-11T07:15:51.757Z,-0.95
2023-02-11T07:20:53.309Z,-0.89
2023-02-11T07:25:57.272Z,-0.87
2023-02-11T07:30:58.995Z,-0.79
2023-02-11T07:36:07.839Z,-0.57
2023-02-11T07:41:33.719Z,0.07
2023-02-11T07:46:42.405Z,0.21
2023-02-11T07:52:29.806Z,0.14
2023-02-11T07:57:56.015Z,0.12
2023-02-11T08:04:19.813Z,0.31
2023-02-11T08:09:36.661Z,0.41
2023-02-11T08:15:11.943Z,0.46
2023-02-11T08:20:27.073Z,0.52
2023-02-11T08:25:34.513Z,0.56
2023-02-11T08:30:40.867Z,0.57
2023-02-11T08:35:59.502Z,0.57
2023-02-11T08:41:48.423Z,0.64
2023-02-11T08:47:51.998Z,0.74
2023-02-11T08:53:17.575Z,0.89
2023-02-11T08:59:00.888Z,1.03
2023-02-11T09:04:02.622Z,1.10
2023-02-11T09:09:04.439Z,1.27
2023-02-11T09:14:06.193Z,1.42
2023-02-11T09:19:09.670Z,1.38
2023-02-11T09:24:11.582Z,1.39
2023-02-11T09:29:13.120Z,1.42
2023-02-11T09:34:15.435Z,1.43
2023-02-11T09:39:19.739Z,1.41
2023-02-11T09:44:24.820Z,1.44
2023-02-11T09:49:39.932Z,1.52
2023-02-11T09:54:50.322Z,1.68
2023-02-11T09:59:54.080Z,2.02
2023-02-11T10:05:16.126Z,2.17
2023-02-11T10:10:37.410Z,2.19
2023-02-11T10:15:52.931Z,2.26
2023-02-11T10:21:45.895Z,2.40
2023-02-11T10:26:48.647Z,2.36
2023-02-11T10:31:58.453Z,2.36
2023-02-11T10:37:13.742Z,2.48
2023-02-11T10:43:11.788Z,2.58
2023-02-11T10:48:51.795Z,2.88
2023-02-11T10:54:15.774Z,3.30
2023-02-11T11:00:19.844Z,3.52
2023-02-11T11:06:06.192Z,3.55
2023-02-11T11:11:36.125Z,3.23
2023-02-11T11:16:53.928Z,2.98
2023-02-11T11:22:18.837Z,2.83
2023-02-11T11:27:59.559Z,2.75
2023-02-11T11:33:44.206Z,2.68
2023-02-11T11:39:32.467Z,2.65
2023-02-11T11:45:19.228Z,2.59
2023-02-11T11:50:30.480Z,2.53
2023-02-11T11:55:43.289Z,2.58
2023-02-11T12:01:01.462Z,2.64
2023-02-11T12:06:57.347Z,2.71
2023-02-11T12:13:12.711Z,2.71
2023-02-11T12:18:46.961Z,2.69
2023-02-11T12:24:30.234Z,2.77
2023-02-11T12:30:10.425Z,2.74
2023-02-11T12:35:29.624Z,2.71
2023-02-11T12:41:52.625Z,2.75
2023-02-11T12:47:26.573Z,2.70
2023-02-11T12:52:55.940Z,2.59
2023-02-11T12:58:02.372Z,2.49
2023-02-11T13:03:16.205Z,2.44
2023-02-11T13:08:47.319Z,2.46
2023-02-11T13:14:05.919Z,2.51
2023-02-11T13:19:47.871Z,2.55
2023-02-11T13:25:47.338Z,2.57
2023-02-11T13:31:11.925Z,2.62
2023-02-11T13:36:19.987Z,2.65
2023-02-11T13:41:32.247Z,2.69
2023-02-11T13:47:10.809Z,2.64
2023-02-11T13:52:38.216Z,2.64
2023-02-11T13:58:26.485Z,2.62
2023-02-11T14:04:46.385Z,2.64
2023-02-11T14:10:49.107Z,2.63
2023-02-11T14:16:38.399Z,2.63
2023-02-11T14:22:29.339Z,2.66
2023-02-11T14:29:01.156Z,2.66
2023-02-11T14:35:14.531Z,2.62
2023-02-11T14:40:58.229Z,2.61
2023-02-11T14:46:19.769Z,2.58
2023-02-11T14:51:49.507Z,2.58
2023-02-11T14:57:15.622Z,2.61
2023-02-11T15:02:47.820Z,2.66
2023-02-11T15:08:30.451Z,2.68
2023-02-11T15:13:47.667Z,2.71
2023-02-11T15:19:44.695Z,2.66
2023-02-11T15:25:35.645Z,2.68
2023-02-11T15:31:17.670Z,2.70
2023-02-11T15:37:03.644Z,2.65
2023-02-11T15:43:12.725Z,2.57
2023-02-11T15:49:03.575Z,2.43
2023-02-11T15:54:46.791Z,2.33
2023-02-11T16:00:59.479Z,2.27
2023-02-11T16:07:08.636Z,2.25
2023-02-11T16:12:35.417Z,2.13
2023-02-11T16:17:59.749Z,2.07
2023-02-11T16:23:07.792Z,1.96
2023-02-11T16:28:40.182Z,1.88
2023-02-11T16:34:45.357Z,1.77
2023-02-11T16:39:57.591Z,1.73
2023-02-11T16:45:05.362Z,1.68
2023-02-11T16:50:30.467Z,1.69
2023-02-11T16:56:13.292Z,1.71
2023-02-11T17:01:37.853Z,1.76
2023-02-11T17:07:02.824Z,1.75
2023-02-11T17:12:29.488Z,1.76
2023-02-11T17:17:47.830Z,1.82
2023-02-11T17:22:56.229Z,1.82
2023-02-11T17:28:29.324Z,1.85
2023-02-11T17:33:51.694Z,1.87
2023-02-11T17:39:38.936Z,1.88
2023-02-11T17:45:22.508Z,1.91
2023-02-11T17:50:45.194Z,1.91
2023-02-11T17:56:01.842Z,1.92
2023-02-11T18:01:06.762Z,1.92
2023-02-11T18:06:08.418Z,1.90
2023-02-11T18:11:12.031Z,1.90
2023-02-11T18:16:15.080Z,1.92
2023-02-11T18:21:19.653Z,1.95
2023-02-11T18:26:21.527Z,1.96
2023-02-11T18:31:39.828Z,1.99
2023-02-11T18:36:44.997Z,2.07
2023-02-11T18:41:49.043Z,2.15
2023-02-11T18:46:53.321Z,2.20
2023-02-11T18:51:55.016Z,2.25
2023-02-11T18:56:56.907Z,2.30
2023-02-11T19:01:58.692Z,2.38
2023-02-11T19:07:03.263Z,2.44
2023-02-11T20:32:15.677Z,5.73
2023-02-11T20:37:20.134Z,4.98
2023-02-11T20:42:21.845Z,4.52
2023-02-11T20:47:23.668Z,4.23
2023-02-11T20:52:25.682Z,4.06
2023-02-11T20:58:26.949Z,3.97
2023-02-11T21:05:00.298Z,3.93
2023-02-11T21:11:23.806Z,3.89
2023-02-11T21:17:27.359Z,3.87
2023-02-11T21:22:29.177Z,3.88
2023-02-11T21:27:33.008Z,3.88
2023-02-11T21:32:34.685Z,3.86
2023-02-11T21:37:38.963Z,3.87
2023-02-11T21:42:41.194Z,3.90
2023-02-11T21:48:42.725Z,3.89
2023-02-11T21:55:06.152Z,3.92
2023-02-11T22:00:28.231Z,3.92
2023-02-11T22:05:32.219Z,3.90
2023-02-11T22:11:33.338Z,3.88
2023-02-11T22:17:35.556Z,3.83
2023-02-11T22:24:06.926Z,3.88
2023-02-11T22:30:28.007Z,3.89
2023-02-11T22:36:25.006Z,3.94
2023-02-11T22:42:32.274Z,3.94
2023-02-11T22:48:40.651Z,3.89
2023-02-11T22:55:43.175Z,3.91
2023-02-11T23:02:27.667Z,3.96
2023-02-11T23:09:11.278Z,3.95
2023-02-11T23:15:32.598Z,3.94
2023-02-11T23:22:12.091Z,3.93
2023-02-11T23:28:49.621Z,3.99
2023-02-11T23:34:30.368Z,4.05
2023-02-11T23:39:34.862Z,4.05
2023-02-11T23:45:16.924Z,4.05
2023-02-11T23:50:46.483Z,4.04
2023-02-11T23:56:26.113Z,4.06
